createdAt,value
2017-11-17T00:00:05.124Z,34.95
2017-11-17T00:02:32.692Z,33.92
2017-11-17T00:05:00.237Z,33.22
2017-11-17T00:07:27.830Z,33.17
2017-11-17T00:09:56.147Z,30.40
2017-11-17T00:12:23.685Z,34.35
2017-11-17T00:14:52.029Z,31.92
2017-11-17T00:17:19.568Z,34.22
2017-11-17T00:19:47.163Z,31.17
2017-11-17T00:22:14.698Z,33.78
2017-11-17T00:24:42.253Z,31.20
2017-11-17T00:27:09.832Z,30.60
2017-11-17T00:29:37.368Z,25.73
2017-11-17T00:32:04.934Z,24.10
2017-11-17T00:34:32.522Z,22.02
2017-11-17T00:37:00.073Z,22.50
2017-11-17T00:39:27.625Z,21.83
2017-11-17T00:41:55.191Z,21.08
2017-11-17T00:44:22.746Z,23.48
2017-11-17T00:46:50.305Z,22.95
2017-11-17T00:49:17.842Z,24.50
2017-11-17T00:51:45.432Z,20.00
2017-11-17T00:54:12.982Z,20.55
2017-11-17T00:56:40.533Z,18.75
2017-11-17T00:59:08.125Z,18.98
2017-11-17T01:01:35.684Z,15.88
2017-11-17T01:04:03.237Z,18.08
2017-11-17T01:06:30.801Z,17.85
2017-11-17T01:08:58.342Z,18.27
2017-11-17T01:11:25.933Z,16.80
2017-11-17T01:13:53.507Z,16.42
2017-11-17T01:16:21.074Z,18.30
2017-11-17T01:18:48.640Z,17.02
2017-11-17T01:21:16.205Z,19.35
2017-11-17T01:23:43.772Z,18.30
2017-11-17T01:26:12.117Z,19.73
2017-11-17T01:28:39.667Z,18.30
2017-11-17T01:31:07.202Z,18.45
2017-11-17T01:33:35.530Z,18.73
2017-11-17T01:36:03.064Z,20.33
2017-11-17T01:38:30.629Z,19.17
2017-11-17T01:40:58.172Z,18.83
2017-11-17T01:43:25.713Z,19.55
2017-11-17T01:45:54.032Z,16.80
2017-11-17T01:48:21.584Z,15.57
2017-11-17T01:50:49.165Z,15.48
2017-11-17T01:53:16.698Z,15.02
2017-11-17T01:55:44.250Z,16.60
2017-11-17T01:58:12.600Z,14.77
2017-11-17T02:00:40.164Z,13.90
2017-11-17T02:03:08.491Z,13.27
2017-11-17T02:05:36.080Z,15.00
2017-11-17T02:08:03.629Z,12.93
2017-11-17T02:10:31.208Z,13.75
2017-11-17T02:12:58.765Z,15.10
2017-11-17T02:15:26.302Z,15.95
2017-11-17T02:17:53.875Z,15.38
2017-11-17T02:20:21.421Z,12.68
2017-11-17T02:22:48.986Z,12.93
2017-11-17T02:25:16.566Z,13.62
2017-11-17T02:27:44.099Z,12.90
2017-11-17T02:30:11.653Z,10.57
2017-11-17T02:32:40.003Z,9.85
2017-11-17T02:35:07.565Z,11.85
2017-11-17T02:37:35.151Z,11.05
2017-11-17T02:40:03.452Z,10.27
2017-11-17T02:42:31.043Z,9.00
2017-11-17T02:44:58.601Z,10.20
2017-11-17T02:47:26.165Z,8.75
2017-11-17T02:49:53.735Z,8.60
2017-11-17T02:52:21.268Z,9.57
2017-11-17T02:54:48.853Z,8.52
2017-11-17T02:57:16.385Z,7.85
2017-11-17T02:59:43.947Z,7.35
2017-11-17T03:02:11.505Z,6.80
2017-11-17T03:04:39.049Z,7.07
2017-11-17T03:07:07.373Z,6.30
2017-11-17T03:09:35.120Z,5.93
2017-11-17T03:12:02.680Z,6.30
2017-11-17T03:14:30.282Z,5.30
2017-11-17T03:16:57.834Z,5.45
2017-11-17T03:19:25.435Z,5.47
2017-11-17T03:21:53.784Z,6.60
2017-11-17T03:24:21.365Z,6.75
2017-11-17T03:26:48.961Z,6.80
2017-11-17T03:29:16.523Z,6.80
2017-11-17T03:31:44.134Z,10.15
2017-11-17T03:34:11.715Z,7.32
2017-11-17T03:36:39.314Z,7.32
2017-11-17T03:39:06.911Z,9.27
2017-11-17T03:41:34.507Z,8.02
2017-11-17T03:44:02.938Z,7.55
2017-11-17T03:46:30.516Z,8.52
2017-11-17T03:48:58.093Z,8.60
2017-11-17T03:51:25.683Z,7.43
2017-11-17T03:53:54.043Z,8.07
2017-11-17T03:56:21.605Z,8.40
2017-11-17T03:58:49.220Z,8.07
2017-11-17T04:01:16.812Z,9.07
2017-11-17T04:03:44.388Z,8.95
2017-11-17T04:06:12.008Z,7.80
2017-11-17T04:08:39.573Z,7.80
2017-11-17T04:11:07.164Z,7.28
2017-11-17T04:13:34.746Z,6.78
2017-11-17T04:16:02.353Z,7.43
2017-11-17T04:18:29.941Z,7.57
2017-11-17T04:20:57.515Z,7.57
2017-11-17T04:23:25.134Z,8.48
2017-11-17T04:25:52.708Z,7.22
2017-11-17T04:28:20.274Z,6.60
2017-11-17T04:30:47.881Z,7.40
2017-11-17T04:33:15.448Z,7.60
2017-11-17T04:35:43.036Z,6.70
2017-11-17T04:38:11.410Z,8.25
2017-11-17T04:40:39.745Z,7.50
2017-11-17T04:43:07.355Z,8.23
2017-11-17T04:45:35.729Z,7.10
2017-11-17T04:48:04.091Z,6.65
2017-11-17T04:50:31.667Z,8.32
2017-11-17T04:53:00.033Z,8.30
2017-11-17T04:55:27.614Z,7.55
2017-11-17T04:57:55.983Z,8.43
2017-11-17T05:00:23.560Z,6.00
2017-11-17T05:02:51.938Z,6.05
2017-11-17T05:05:20.275Z,5.65
2017-11-17T05:07:47.854Z,7.20
2017-11-17T05:10:15.475Z,5.75
2017-11-17T05:12:43.031Z,6.28
2017-11-17T05:15:10.614Z,6.18
2017-11-17T05:17:38.209Z,7.20
2017-11-17T05:20:05.812Z,6.60
2017-11-17T05:22:33.383Z,5.60
2017-11-17T05:25:00.962Z,7.40
2017-11-17T05:27:28.548Z,8.23
2017-11-17T05:29:56.119Z,8.40
2017-11-17T05:32:23.708Z,6.37
2017-11-17T05:34:52.044Z,7.15
2017-11-17T05:37:19.644Z,8.07
2017-11-17T05:39:47.977Z,7.60
2017-11-17T05:42:15.565Z,7.28
2017-11-17T05:44:43.151Z,7.07
2017-11-17T05:47:11.488Z,7.90
2017-11-17T05:49:39.085Z,6.53
2017-11-17T05:52:06.656Z,7.00
2017-11-17T05:54:35.030Z,5.43
2017-11-17T05:57:03.389Z,6.10
2017-11-17T05:59:30.974Z,5.87
2017-11-17T06:01:59.326Z,7.90
2017-11-17T06:04:26.892Z,6.30
2017-11-17T06:06:54.469Z,6.78
2017-11-17T06:09:22.041Z,6.57
2017-11-17T06:11:50.396Z,6.72
2017-11-17T06:14:17.982Z,6.05
2017-11-17T06:16:45.588Z,7.00
2017-11-17T06:19:13.156Z,6.45
2017-11-17T06:21:40.729Z,7.78
2017-11-17T06:24:08.304Z,6.93
2017-11-17T06:26:35.931Z,7.32
2017-11-17T06:29:03.524Z,6.03
2017-11-17T06:31:31.097Z,6.03
2017-11-17T06:33:58.710Z,5.90
2017-11-17T06:36:26.313Z,6.03
2017-11-17T06:38:53.913Z,5.35
2017-11-17T06:41:21.519Z,7.30
2017-11-17T06:43:49.135Z,6.07
2017-11-17T06:46:17.488Z,5.70
2017-11-17T06:48:45.832Z,6.82
2017-11-17T06:51:13.419Z,5.75
2017-11-17T06:53:41.276Z,6.07
2017-11-17T06:56:09.630Z,5.75
2017-11-17T06:58:39.038Z,5.78
2017-11-17T07:01:06.608Z,6.18
2017-11-17T07:03:34.176Z,6.30
2017-11-17T07:06:01.777Z,6.20
2017-11-17T07:08:29.335Z,5.97
2017-11-17T07:10:56.910Z,6.75
2017-11-17T07:13:24.499Z,6.22
2017-11-17T07:15:52.852Z,6.75
2017-11-17T07:18:20.445Z,5.85
2017-11-17T07:20:48.764Z,7.80
2017-11-17T07:23:16.349Z,6.32
2017-11-17T07:25:43.953Z,6.35
2017-11-17T07:28:11.524Z,6.50
2017-11-17T07:30:39.164Z,5.62
2017-11-17T07:33:07.499Z,5.07
2017-11-17T07:35:35.061Z,5.32
2017-11-17T07:38:02.634Z,6.40
2017-11-17T07:40:30.212Z,6.32
2017-11-17T07:42:57.820Z,6.37
2017-11-17T07:45:25.394Z,6.18
2017-11-17T07:47:52.989Z,6.60
2017-11-17T07:50:21.319Z,5.62
2017-11-17T07:52:48.897Z,7.85
2017-11-17T07:55:16.498Z,6.12
2017-11-17T07:57:44.092Z,6.20
2017-11-17T08:00:12.758Z,7.40
2017-11-17T08:02:40.427Z,6.20
2017-11-17T08:05:08.004Z,7.55
2017-11-17T08:07:36.360Z,6.50
2017-11-17T08:10:04.179Z,8.23
2017-11-17T08:12:32.049Z,5.65
2017-11-17T08:14:59.601Z,7.60
2017-11-17T08:17:39.117Z,7.05
2017-11-17T08:20:07.450Z,6.12
2017-11-17T08:22:35.042Z,6.85
2017-11-17T08:25:02.636Z,7.45
2017-11-17T08:27:30.216Z,6.93
2017-11-17T08:29:57.823Z,9.07
2017-11-17T08:32:25.377Z,8.15
2017-11-17T08:34:52.928Z,7.20
2017-11-17T08:37:20.531Z,7.45
2017-11-17T08:39:48.886Z,9.63
2017-11-17T08:42:16.452Z,8.05
2017-11-17T08:44:44.026Z,8.65
2017-11-17T08:47:11.596Z,8.02
2017-11-17T08:49:39.967Z,7.97
2017-11-17T08:52:07.545Z,7.30
2017-11-17T08:54:35.922Z,7.53
2017-11-17T08:57:04.259Z,7.80
2017-11-17T08:59:31.883Z,8.30
2017-11-17T09:01:59.494Z,7.80
2017-11-17T09:04:27.074Z,8.10
2017-11-17T09:06:54.675Z,7.03
2017-11-17T09:09:22.258Z,8.25
2017-11-17T09:11:49.840Z,7.00
2017-11-17T09:14:17.438Z,6.70
2017-11-17T09:16:45.811Z,7.07
2017-11-17T09:19:13.442Z,6.18
2017-11-17T09:21:41.009Z,7.00
2017-11-17T09:24:08.602Z,6.37
2017-11-17T09:26:36.998Z,6.30
2017-11-17T09:29:05.321Z,6.47
2017-11-17T09:31:32.886Z,6.22
2017-11-17T09:34:00.493Z,5.85
2017-11-17T09:36:28.831Z,6.30
2017-11-17T09:38:56.384Z,5.50
2017-11-17T09:41:23.973Z,5.18
2017-11-17T09:43:51.525Z,7.70
2017-11-17T09:46:19.125Z,6.30
2017-11-17T09:48:47.468Z,6.32
2017-11-17T09:51:15.073Z,5.50
2017-11-17T09:53:43.417Z,5.50
2017-11-17T09:56:11.019Z,5.05
2017-11-17T09:58:39.356Z,4.50
2017-11-17T10:01:06.986Z,5.97
2017-11-17T10:03:34.556Z,5.40
2017-11-17T10:06:02.129Z,5.78
2017-11-17T10:08:31.017Z,5.70
2017-11-17T10:10:58.595Z,4.65
2017-11-17T10:13:26.194Z,5.28
2017-11-17T10:15:54.575Z,4.87
2017-11-17T10:18:22.925Z,3.90
2017-11-17T10:20:50.526Z,4.90
2017-11-17T10:23:18.876Z,4.53
2017-11-17T10:25:46.471Z,4.05
2017-11-17T10:28:14.813Z,4.68
2017-11-17T10:30:42.407Z,4.50
2017-11-17T10:33:10.762Z,4.25
2017-11-17T10:35:38.383Z,4.65
2017-11-17T10:38:05.934Z,4.25
2017-11-17T10:40:33.523Z,5.18
2017-11-17T10:43:01.133Z,4.78
2017-11-17T10:45:29.454Z,4.65
2017-11-17T10:47:57.052Z,4.70
2017-11-17T10:50:24.620Z,4.03
2017-11-17T10:52:52.197Z,3.20
2017-11-17T10:55:20.561Z,3.12
2017-11-17T10:57:48.135Z,3.78
2017-11-17T11:00:23.237Z,4.05
2017-11-17T11:02:50.895Z,3.62
2017-11-17T11:05:18.510Z,3.85
2017-11-17T11:07:46.856Z,3.45
2017-11-17T11:10:14.438Z,2.92
2017-11-17T11:12:42.017Z,3.83
2017-11-17T11:15:10.357Z,2.95
2017-11-17T11:17:37.971Z,1.70
2017-11-17T11:20:05.557Z,2.42
2017-11-17T11:22:33.125Z,1.70
2017-11-17T11:25:00.729Z,2.42
2017-11-17T11:27:28.286Z,2.30
2017-11-17T11:29:55.875Z,2.25
2017-11-17T11:32:24.236Z,2.47
2017-11-17T11:34:51.796Z,1.85
2017-11-17T11:37:20.163Z,2.37
2017-11-17T11:39:47.719Z,1.62
2017-11-17T11:42:15.320Z,2.12
2017-11-17T11:44:43.662Z,2.50
2017-11-17T11:47:12.015Z,2.40
2017-11-17T11:49:39.632Z,2.25
2017-11-17T11:52:07.976Z,1.65
2017-11-17T11:54:35.599Z,2.10
2017-11-17T11:57:03.186Z,1.60
2017-11-17T11:59:31.525Z,1.75
2017-11-17T12:01:59.896Z,1.90
2017-11-17T12:04:27.495Z,2.12
2017-11-17T12:06:55.088Z,2.30
2017-11-17T12:09:22.675Z,1.67
2017-11-17T12:11:50.255Z,2.03
2017-11-17T12:14:18.637Z,1.48
2017-11-17T12:16:46.972Z,2.00
2017-11-17T12:19:14.565Z,1.60
2017-11-17T12:21:42.923Z,1.50
2017-11-17T12:24:10.500Z,2.28
2017-11-17T12:26:38.075Z,3.35
2017-11-17T12:29:06.427Z,3.08
2017-11-17T12:31:34.031Z,3.50
2017-11-17T12:34:02.382Z,1.62
2017-11-17T12:36:29.965Z,1.42
2017-11-17T12:38:58.320Z,1.70
2017-11-17T12:41:26.060Z,1.65
2017-11-17T12:43:53.626Z,1.23
2017-11-17T12:46:21.229Z,1.65
2017-11-17T12:48:49.606Z,2.03
2017-11-17T12:51:17.211Z,1.70
2017-11-17T12:53:44.840Z,1.27
2017-11-17T12:56:13.221Z,1.42
2017-11-17T12:58:41.581Z,1.50
2017-11-17T13:01:09.161Z,1.70
2017-11-17T13:03:37.498Z,2.25
2017-11-17T13:06:05.081Z,2.00
2017-11-17T13:08:32.657Z,2.65
2017-11-17T13:11:00.287Z,1.30
2017-11-17T13:13:27.846Z,1.80
2017-11-17T13:15:55.435Z,1.08
2017-11-17T13:18:23.033Z,1.70
2017-11-17T13:20:50.618Z,1.85
2017-11-17T13:23:18.228Z,1.42
2017-11-17T13:25:45.803Z,1.15
2017-11-17T13:28:14.171Z,1.77
2017-11-17T13:30:41.791Z,2.08
2017-11-17T13:33:09.369Z,1.30
2017-11-17T13:35:37.723Z,1.40
2017-11-17T13:38:05.333Z,1.50
2017-11-17T13:40:32.926Z,1.87
2017-11-17T13:43:01.263Z,1.55
2017-11-17T13:45:28.862Z,1.33
2017-11-17T13:47:57.209Z,1.33
2017-11-17T13:50:24.779Z,1.20
2017-11-17T13:52:52.371Z,1.45
2017-11-17T13:55:20.724Z,1.15
2017-11-17T13:57:48.295Z,1.83
2017-11-17T14:00:15.899Z,1.33
2017-11-17T14:02:43.497Z,1.55
2017-11-17T14:05:11.087Z,1.75
2017-11-17T14:07:38.722Z,1.30
2017-11-17T14:10:06.276Z,1.00
2017-11-17T14:12:33.844Z,1.70
2017-11-17T14:15:01.444Z,1.83
2017-11-17T14:17:29.809Z,1.48
2017-11-17T14:19:57.365Z,0.80
2017-11-17T14:22:24.942Z,1.15
2017-11-17T14:24:52.498Z,1.73
2017-11-17T14:27:20.114Z,0.90
2017-11-17T14:29:47.683Z,1.27
2017-11-17T14:32:15.259Z,1.35
2017-11-17T14:34:42.858Z,1.10
2017-11-17T14:37:10.457Z,1.27
2017-11-17T14:39:38.083Z,1.40
2017-11-17T14:42:06.438Z,1.00
2017-11-17T14:44:34.777Z,1.00
2017-11-17T14:47:02.377Z,1.00
2017-11-17T14:49:29.942Z,1.25
2017-11-17T14:51:57.548Z,1.40
2017-11-17T14:54:25.899Z,0.90
2017-11-17T14:56:53.471Z,1.70
2017-11-17T14:59:21.110Z,1.25
2017-11-17T15:01:48.705Z,1.80
2017-11-17T15:04:17.054Z,1.87
2017-11-17T15:06:44.683Z,2.08
2017-11-17T15:09:12.295Z,1.27
2017-11-17T15:11:39.872Z,1.50
2017-11-17T15:14:08.250Z,2.35
2017-11-17T15:16:36.597Z,1.98
2017-11-17T15:19:04.192Z,1.70
2017-11-17T15:21:32.550Z,2.05
2017-11-17T15:24:00.185Z,1.80
2017-11-17T15:26:27.854Z,1.85
2017-11-17T15:28:55.467Z,2.75
2017-11-17T15:31:23.845Z,2.55
2017-11-17T15:33:52.193Z,2.05
2017-11-17T15:36:20.542Z,2.53
2017-11-17T15:38:48.143Z,2.70
2017-11-17T15:41:15.722Z,1.80
2017-11-17T15:43:43.296Z,2.10
2017-11-17T15:46:11.684Z,2.17
2017-11-17T15:48:40.022Z,2.55
2017-11-17T15:51:07.592Z,2.30
2017-11-17T15:53:35.193Z,1.77
2017-11-17T15:56:03.530Z,2.08
2017-11-17T15:58:31.087Z,2.17
2017-11-17T16:00:58.695Z,4.62
2017-11-17T16:03:27.017Z,3.50
2017-11-17T16:05:54.607Z,2.55
2017-11-17T16:08:22.204Z,2.72
2017-11-17T16:10:50.533Z,3.10
2017-11-17T16:13:18.101Z,2.15
2017-11-17T16:15:45.686Z,2.70
2017-11-17T16:18:13.270Z,2.42
2017-11-17T16:20:41.617Z,3.22
2017-11-17T16:23:09.188Z,4.03
2017-11-17T16:25:36.766Z,3.47
2017-11-17T16:28:05.113Z,3.15
2017-11-17T16:30:32.680Z,4.10
2017-11-17T16:33:00.262Z,4.12
2017-11-17T16:35:27.863Z,9.90
2017-11-17T16:37:55.446Z,18.85
2017-11-17T16:40:23.073Z,15.27
2017-11-17T16:42:51.407Z,22.02
2017-11-17T16:45:19.026Z,28.73
2017-11-17T16:47:46.618Z,30.25
2017-11-17T16:50:14.190Z,27.62
2017-11-17T16:52:41.801Z,22.85
2017-11-17T16:55:10.147Z,14.23
2017-11-17T16:57:37.742Z,13.02
2017-11-17T17:00:06.103Z,13.73
2017-11-17T17:02:33.658Z,29.27
2017-11-17T17:05:01.258Z,38.35
2017-11-17T17:07:28.879Z,41.80
2017-11-17T17:09:56.441Z,37.65
2017-11-17T17:12:24.010Z,33.58
2017-11-17T17:14:51.631Z,28.98
2017-11-17T17:17:19.208Z,27.35
2017-11-17T17:19:46.771Z,28.80
2017-11-17T17:22:14.341Z,25.00
2017-11-17T17:24:41.901Z,24.95
2017-11-17T17:27:09.504Z,23.65
2017-11-17T17:29:37.853Z,22.50
2017-11-17T17:32:05.410Z,20.25
2017-11-17T17:34:33.017Z,16.67
2017-11-17T17:37:01.378Z,18.75
2017-11-17T17:39:29.737Z,20.58
2017-11-17T17:41:57.320Z,21.67
2017-11-17T17:44:25.709Z,18.15
2017-11-17T17:46:54.056Z,14.48
2017-11-17T17:49:21.646Z,17.15
2017-11-17T17:51:49.992Z,19.42
2017-11-17T17:54:17.573Z,14.50
2017-11-17T17:56:45.182Z,13.52
2017-11-17T17:59:12.770Z,12.48
2017-11-17T18:01:40.361Z,12.15
2017-11-17T18:04:07.918Z,14.32
2017-11-17T18:06:35.505Z,13.95
2017-11-17T18:09:03.855Z,14.95
2017-11-17T18:11:31.446Z,13.07
2017-11-17T18:14:14.694Z,11.45
2017-11-17T18:16:42.264Z,13.35
2017-11-17T18:19:09.846Z,12.48
2017-11-17T18:21:37.458Z,10.50
2017-11-17T18:24:05.121Z,9.98
2017-11-17T18:26:32.687Z,8.30
2017-11-17T18:29:00.249Z,7.30
2017-11-17T18:31:28.619Z,6.30
2017-11-17T18:33:56.192Z,5.37
2017-11-17T18:36:24.589Z,5.00
2017-11-17T18:38:52.913Z,5.05
2017-11-17T18:41:20.530Z,4.40
2017-11-17T18:43:48.936Z,3.62
2017-11-17T18:46:17.246Z,4.05
2017-11-17T18:48:44.838Z,4.43
2017-11-17T18:51:12.418Z,3.78
2017-11-17T18:53:40.756Z,6.82
2017-11-17T18:56:08.390Z,4.45
2017-11-17T18:58:35.968Z,4.12
2017-11-17T19:01:03.554Z,4.03
2017-11-17T19:03:31.164Z,4.90
2017-11-17T19:05:59.502Z,5.50
2017-11-17T19:08:27.095Z,5.47
2017-11-17T19:10:54.727Z,7.68
2017-11-17T19:13:22.324Z,6.53
2017-11-17T19:15:50.688Z,7.12
2017-11-17T19:18:18.230Z,7.43
2017-11-17T19:20:45.819Z,14.48
2017-11-17T19:23:14.155Z,22.65
2017-11-17T19:25:41.723Z,12.95
2017-11-17T19:28:09.312Z,12.25
2017-11-17T19:30:37.642Z,10.88
2017-11-17T19:33:05.236Z,11.63
2017-11-17T19:35:32.816Z,16.62
2017-11-17T19:38:01.181Z,18.95
2017-11-17T19:40:28.757Z,35.92
2017-11-17T19:42:57.150Z,15.95
2017-11-17T19:45:25.471Z,18.08
2017-11-17T19:47:53.068Z,16.08
2017-11-17T19:50:20.687Z,14.93
2017-11-17T19:52:48.273Z,13.75
2017-11-17T19:55:15.833Z,16.48
2017-11-17T19:57:43.451Z,14.52
2017-11-17T20:00:11.045Z,17.02
2017-11-17T20:02:38.630Z,18.10
2017-11-17T20:05:06.249Z,17.70
2017-11-17T20:07:33.819Z,20.25
2017-11-17T20:10:01.392Z,18.98
2017-11-17T20:12:29.011Z,13.82
2017-11-17T20:14:57.349Z,10.65
2017-11-17T20:17:24.929Z,11.65
2017-11-17T20:19:52.532Z,14.38
2017-11-17T20:22:20.094Z,18.23
2017-11-17T20:24:48.474Z,20.10
2017-11-17T20:27:16.069Z,20.17
2017-11-17T20:29:43.646Z,18.08
2017-11-17T20:32:11.239Z,18.15
2017-11-17T20:34:39.589Z,19.50
2017-11-17T20:37:07.180Z,16.52
2017-11-17T20:39:35.566Z,16.75
2017-11-17T20:42:03.949Z,18.25
2017-11-17T20:44:32.266Z,14.18
2017-11-17T20:46:59.858Z,14.93
2017-11-17T20:49:27.423Z,19.75
2017-11-17T20:51:54.986Z,19.20
2017-11-17T20:54:22.593Z,15.35
2017-11-17T20:56:51.024Z,15.25
2017-11-17T20:59:23.280Z,12.52
2017-11-17T21:01:50.875Z,13.85
2017-11-17T21:04:18.442Z,19.75
2017-11-17T21:06:46.038Z,19.00
2017-11-17T21:09:13.610Z,16.67
2017-11-17T21:11:41.193Z,16.83
2017-11-17T21:14:08.811Z,16.15
2017-11-17T21:16:37.152Z,16.48
2017-11-17T21:19:04.737Z,17.65
2017-11-17T21:21:33.121Z,16.83
2017-11-17T21:24:00.696Z,16.85
2017-11-17T21:26:29.044Z,17.75
2017-11-17T21:28:56.653Z,16.00
2017-11-17T21:31:24.214Z,15.40
2017-11-17T21:33:51.852Z,14.15
2017-11-17T21:36:20.228Z,14.55
2017-11-17T21:38:47.807Z,14.45
2017-11-17T21:41:16.176Z,13.77
2017-11-17T21:43:43.738Z,11.20
2017-11-17T21:46:12.093Z,12.63
2017-11-17T21:48:39.698Z,10.18
2017-11-17T21:51:08.048Z,9.45
2017-11-17T21:53:35.620Z,11.10
2017-11-17T21:56:03.217Z,7.68
2017-11-17T21:58:30.774Z,7.87
2017-11-17T22:00:58.373Z,6.37
2017-11-17T22:03:25.953Z,5.62
2017-11-17T22:05:54.489Z,7.12
2017-11-17T22:08:22.080Z,5.82
2017-11-17T22:10:49.654Z,6.93
2017-11-17T22:13:17.234Z,6.80
2017-11-17T22:15:44.826Z,5.55
2017-11-17T22:18:13.173Z,5.07
2017-11-17T22:20:40.748Z,4.60
2017-11-17T22:23:08.349Z,4.87
2017-11-17T22:25:35.917Z,4.50
2017-11-17T22:28:03.488Z,4.60
2017-11-17T22:30:31.093Z,4.22
2017-11-17T22:32:58.672Z,6.00
2017-11-17T22:35:27.002Z,5.20
2017-11-17T22:37:54.683Z,5.62
2017-11-17T22:40:23.011Z,4.82
2017-11-17T22:42:50.584Z,4.25
2017-11-17T22:45:18.192Z,4.72
2017-11-17T22:47:45.758Z,4.72
2017-11-17T22:50:13.325Z,3.90
2017-11-17T22:52:40.924Z,4.50
2017-11-17T22:55:08.493Z,4.53
2017-11-17T22:57:36.061Z,4.30
2017-11-17T23:00:03.671Z,4.60
2017-11-17T23:02:31.256Z,4.47
2017-11-17T23:04:59.598Z,5.55
2017-11-17T23:07:27.201Z,5.45
2017-11-17T23:09:55.806Z,6.35
2017-11-17T23:12:23.358Z,5.12
2017-11-17T23:14:51.707Z,4.87
2017-11-17T23:17:19.276Z,4.25
2017-11-17T23:19:46.831Z,4.65
2017-11-17T23:22:14.435Z,3.35
2017-11-17T23:24:42.022Z,4.65
2017-11-17T23:27:09.615Z,4.93
2017-11-17T23:29:37.216Z,4.60
2017-11-17T23:32:04.772Z,5.47
2017-11-17T23:34:33.106Z,8.38
2017-11-17T23:37:00.709Z,10.60
2017-11-17T23:39:29.062Z,7.62
2017-11-17T23:41:56.635Z,6.00
2017-11-17T23:44:24.226Z,5.15
2017-11-17T23:46:51.797Z,4.68
2017-11-17T23:49:19.346Z,5.32
2017-11-17T23:51:47.720Z,6.05
2017-11-17T23:54:15.335Z,5.85
2017-11-17T23:56:42.950Z,6.28
2017-11-17T23:59:10.545Z,6.65
